createdAt,value
2019-05-13T00:04:18.901Z,13.11
2019-05-13T00:09:40.829Z,13.05
2019-05-13T00:15:03.761Z,13.07
2019-05-13T00:20:25.260Z,13.07
2019-05-13T00:25:47.231Z,12.94
2019-05-13T00:31:08.901Z,12.78
2019-05-13T00:36:30.871Z,12.66
2019-05-13T00:41:53.182Z,12.66
2019-05-13T00:47:14.715Z,12.67
2019-05-13T00:52:36.636Z,12.53
2019-05-13T00:57:58.170Z,12.45
2019-05-13T01:03:19.913Z,12.53
2019-05-13T01:08:48.625Z,12.31
2019-05-13T01:14:10.478Z,12.23
2019-05-13T01:19:34.126Z,12.15
2019-05-13T01:24:55.728Z,12.30
2019-05-13T01:30:18.390Z,12.35
2019-05-13T01:35:40.207Z,12.29
2019-05-13T01:41:04.335Z,12.35
2019-05-13T01:46:25.657Z,12.25
2019-05-13T01:51:47.057Z,12.14
2019-05-13T01:57:08.930Z,11.97
2019-05-13T02:02:30.572Z,11.86
2019-05-13T02:07:59.623Z,11.76
2019-05-13T02:13:15.710Z,11.69
2019-05-13T02:18:37.162Z,11.66
2019-05-13T02:23:58.713Z,11.63
2019-05-13T02:29:20.522Z,11.56
2019-05-13T02:34:43.744Z,11.53
2019-05-13T02:40:06.154Z,11.55
2019-05-13T02:45:28.219Z,11.50
2019-05-13T02:50:52.888Z,11.44
2019-05-13T02:56:14.130Z,11.33
2019-05-13T03:01:35.477Z,11.21
2019-05-13T03:06:57.524Z,11.22
2019-05-13T03:12:19.022Z,11.34
2019-05-13T03:18:03.186Z,11.38
2019-05-13T03:23:25.278Z,11.36
2019-05-13T03:28:47.067Z,11.21
2019-05-13T03:34:14.917Z,11.25
2019-05-13T03:39:34.247Z,11.37
2019-05-13T03:44:57.627Z,11.41
2019-05-13T03:50:22.324Z,11.43
2019-05-13T03:55:43.783Z,11.39
2019-05-13T04:01:06.043Z,11.40
2019-05-13T04:06:27.611Z,11.49
2019-05-13T04:11:52.497Z,11.63
2019-05-13T04:17:13.728Z,11.66
2019-05-13T04:22:36.069Z,11.56
2019-05-13T04:27:58.087Z,11.58
2019-05-13T04:33:22.615Z,11.70
2019-05-13T04:38:44.679Z,11.82
2019-05-13T04:44:06.772Z,12.10
2019-05-13T04:49:28.581Z,12.45
2019-05-13T04:54:52.788Z,12.76
2019-05-13T05:00:13.974Z,13.00
2019-05-13T05:06:07.303Z,13.40
2019-05-13T05:12:04.697Z,13.59
2019-05-13T05:18:11.678Z,13.66
2019-05-13T05:23:59.247Z,13.64
2019-05-13T05:29:42.224Z,13.84
2019-05-13T05:35:17.344Z,14.45
2019-05-13T05:57:26.510Z,15.70
2019-05-13T06:02:52.968Z,16.01
2019-05-13T06:08:13.688Z,15.98
2019-05-13T06:13:37.891Z,15.85
2019-05-13T06:19:01.457Z,15.90
2019-05-13T06:24:26.651Z,15.89
2019-05-13T06:29:49.300Z,15.96
2019-05-13T06:35:11.642Z,16.13
2019-05-13T06:40:33.787Z,16.33
2019-05-13T06:45:55.773Z,16.46
2019-05-13T06:51:17.588Z,16.70
2019-05-13T06:56:39.302Z,16.80
2019-05-13T07:02:02.113Z,16.99
2019-05-13T07:07:24.551Z,16.99
2019-05-13T07:12:46.072Z,17.01
2019-05-13T07:18:07.780Z,17.12
2019-05-13T07:23:31.891Z,17.17
2019-05-13T07:28:53.468Z,17.41
2019-05-13T07:34:15.583Z,17.44
2019-05-13T07:39:37.829Z,17.59
2019-05-13T07:45:01.442Z,17.96
2019-05-13T07:50:23.265Z,17.96
2019-05-13T07:55:45.188Z,17.95
2019-05-13T08:01:07.239Z,18.13
2019-05-13T08:06:32.140Z,18.13
2019-05-13T08:12:14.410Z,18.26
2019-05-13T08:17:35.088Z,18.42
2019-05-13T08:22:56.998Z,18.31
2019-05-13T08:28:22.396Z,18.27
2019-05-13T08:33:44.384Z,18.50
2019-05-13T08:39:07.899Z,18.40
2019-05-13T08:44:32.023Z,18.66
2019-05-13T08:49:56.623Z,18.99
2019-05-13T08:55:18.259Z,19.11
2019-05-13T09:00:52.953Z,19.61
2019-05-13T09:06:14.506Z,20.02
2019-05-13T09:11:36.471Z,19.73
2019-05-13T09:16:58.535Z,19.89
2019-05-13T09:22:21.337Z,20.06
2019-05-13T09:27:43.115Z,19.93
2019-05-13T09:33:04.850Z,19.83
2019-05-13T09:38:26.576Z,19.90
2019-05-13T09:43:48.008Z,20.11
2019-05-13T09:49:15.740Z,19.96
2019-05-13T09:54:33.437Z,20.10
2019-05-13T09:59:55.160Z,20.08
2019-05-13T10:05:16.581Z,20.00
2019-05-13T10:10:38.608Z,20.22
2019-05-13T10:16:00.203Z,20.21
2019-05-13T10:21:22.068Z,20.35
2019-05-13T10:26:44.145Z,20.51
2019-05-13T10:32:06.692Z,20.72
2019-05-13T10:37:28.440Z,20.58
2019-05-13T10:42:52.225Z,20.21
2019-05-13T10:48:13.609Z,20.08
2019-05-13T10:53:35.567Z,20.31
2019-05-13T10:58:57.382Z,20.70
2019-05-13T11:04:18.626Z,20.61
2019-05-13T11:09:41.850Z,20.75
2019-05-13T11:15:04.413Z,20.81
2019-05-13T11:20:26.400Z,20.83
2019-05-13T11:25:48.295Z,21.03
2019-05-13T11:31:09.919Z,21.44
2019-05-13T11:36:33.364Z,21.35
2019-05-13T11:41:55.007Z,21.17
2019-05-13T11:47:16.903Z,21.11
2019-05-13T11:52:38.743Z,21.11
2019-05-13T11:58:02.981Z,21.37
2019-05-13T12:03:23.806Z,21.25
2019-05-13T12:08:51.003Z,21.27
2019-05-13T12:14:34.755Z,21.38
2019-05-13T12:19:32.700Z,21.55
2019-05-13T12:24:53.932Z,21.46
2019-05-13T12:30:16.279Z,21.34
2019-05-13T12:35:38.437Z,21.03
2019-05-13T12:41:03.855Z,21.17
2019-05-13T12:46:24.644Z,21.04
2019-05-13T12:51:46.917Z,20.73
2019-05-13T12:57:13.081Z,20.71
2019-05-13T13:02:32.736Z,20.61
2019-05-13T13:08:16.085Z,20.40
2019-05-13T13:13:18.324Z,20.87
2019-05-13T13:39:43.191Z,21.90
2019-05-13T13:45:06.399Z,21.91
2019-05-13T13:50:28.544Z,21.71
2019-05-13T13:55:55.514Z,20.80
2019-05-13T14:01:19.886Z,20.28
2019-05-13T14:12:02.009Z,20.06
2019-05-13T14:17:23.752Z,19.61
2019-05-13T14:22:45.423Z,19.57
2019-05-13T14:28:07.078Z,19.61
2019-05-13T14:33:32.504Z,19.46
2019-05-13T14:38:53.034Z,19.68
2019-05-13T14:44:14.705Z,20.19
2019-05-13T14:49:36.502Z,20.30
2019-05-13T14:54:57.937Z,20.24
2019-05-13T15:00:22.103Z,20.38
2019-05-13T15:05:43.400Z,20.70
2019-05-13T15:11:04.844Z,21.04
2019-05-13T15:16:26.930Z,20.20
2019-05-13T15:21:48.635Z,19.71
2019-05-13T15:27:10.245Z,19.53
2019-05-13T15:32:32.721Z,19.20
2019-05-13T15:37:54.072Z,18.73
2019-05-13T15:43:15.563Z,18.36
2019-05-13T15:48:37.425Z,18.14
2019-05-13T15:54:02.225Z,17.90
2019-05-13T15:59:22.948Z,17.90
2019-05-13T16:04:52.640Z,17.66
2019-05-13T16:10:11.116Z,17.60
2019-05-13T16:15:32.494Z,17.60
2019-05-13T16:20:54.213Z,17.47
2019-05-13T16:26:15.882Z,17.21
2019-05-13T16:31:37.758Z,17.08
2019-05-13T16:37:01.608Z,16.60
2019-05-13T16:42:23.423Z,16.46
2019-05-13T16:47:56.561Z,16.36
2019-05-13T16:53:08.608Z,16.12
2019-05-13T16:58:32.501Z,16.03
2019-05-13T17:03:54.002Z,15.78
2019-05-13T17:09:16.000Z,15.75
2019-05-13T17:14:37.489Z,15.68
2019-05-13T17:19:59.465Z,15.47
2019-05-13T17:25:20.705Z,15.37
2019-05-13T17:30:42.678Z,15.23
2019-05-13T17:36:04.329Z,15.38
2019-05-13T17:41:26.444Z,15.34
2019-05-13T17:46:47.988Z,15.26
2019-05-13T17:52:11.357Z,15.11
2019-05-13T17:57:33.209Z,14.81
2019-05-13T18:02:54.990Z,14.75
2019-05-13T18:08:16.565Z,14.86
2019-05-13T18:13:42.986Z,14.97
2019-05-13T18:19:02.258Z,14.89
2019-05-13T18:24:23.951Z,14.77
2019-05-13T18:29:45.844Z,14.50
2019-05-13T18:35:07.797Z,14.49
2019-05-13T18:40:31.344Z,14.31
2019-05-13T18:45:52.926Z,14.43
2019-05-13T18:51:14.667Z,14.49
2019-05-13T18:56:36.089Z,14.23
2019-05-13T19:01:57.688Z,14.26
2019-05-13T19:07:21.375Z,14.28
2019-05-13T19:12:42.960Z,14.06
2019-05-13T19:18:05.116Z,14.12
2019-05-13T19:23:26.557Z,14.16
2019-05-13T19:28:48.555Z,14.19
2019-05-13T19:34:12.592Z,14.31
2019-05-13T19:39:34.612Z,14.26
2019-05-13T19:44:56.352Z,14.32
2019-05-13T19:50:18.372Z,14.39
2019-05-13T19:55:41.442Z,14.45
2019-05-13T20:01:03.710Z,14.39
2019-05-13T20:06:25.236Z,14.38
2019-05-13T20:11:46.984Z,14.50
2019-05-13T20:17:09.147Z,14.36
2019-05-13T20:22:31.431Z,14.32
2019-05-13T20:27:53.087Z,14.31
2019-05-13T20:33:14.446Z,14.40
2019-05-13T20:38:35.885Z,14.29
2019-05-13T20:43:57.663Z,14.00
2019-05-13T20:49:21.717Z,13.82
2019-05-13T20:54:43.275Z,13.62
2019-05-13T21:00:05.118Z,13.36
2019-05-13T21:05:26.981Z,13.34
2019-05-13T21:10:48.612Z,13.30
2019-05-13T21:16:11.417Z,13.14
2019-05-13T21:21:33.645Z,13.04
2019-05-13T21:26:55.690Z,12.87
2019-05-13T21:32:17.819Z,12.81
2019-05-13T21:37:39.589Z,12.72
2019-05-13T21:43:01.457Z,12.62
2019-05-13T21:48:22.631Z,12.67
2019-05-13T21:53:44.703Z,12.67
2019-05-13T21:59:06.452Z,12.59
2019-05-13T22:04:28.221Z,12.59
2019-05-13T22:09:51.345Z,12.54
2019-05-13T22:15:13.226Z,12.42
2019-05-13T22:20:47.342Z,12.53
2019-05-13T22:26:01.373Z,12.69
2019-05-13T22:31:22.351Z,12.73
2019-05-13T22:36:43.990Z,12.79
2019-05-13T22:42:05.461Z,12.72
2019-05-13T22:47:27.390Z,12.69
2019-05-13T22:52:48.614Z,12.63
2019-05-13T22:58:10.339Z,12.85
2019-05-13T23:03:32.456Z,13.19
2019-05-13T23:08:53.667Z,13.20
2019-05-13T23:14:15.077Z,13.21
2019-05-13T23:19:36.917Z,13.30
2019-05-13T23:24:58.716Z,13.35
2019-05-13T23:30:20.545Z,13.37
2019-05-13T23:35:42.040Z,13.62
2019-05-13T23:41:03.880Z,13.71
2019-05-13T23:46:25.305Z,13.72
2019-05-13T23:51:47.147Z,13.72
2019-05-13T23:57:08.624Z,13.26
